Time;durP1;ratioP1;P1;durP2;ratioP2;P2;SDS_P1;SDS_P2;PMS_P1;PMS_P2;Temp;Humidity;BMP_temperature;BMP_pressure;BME280_temperature;BME280_humidity;BME280_pressure;Samples;Min_cycle;Max_cycle;Signal;HPM_P1;HPM_P2
2022/01/29 00:00:50;;;;;;;2.85;1.20;;;;;;;25.83;27.29;98121.88;4930711;28;20838;-62
2022/01/29 00:03:16;;;;;;;1.73;0.98;;;;;;;25.81;27.41;98113.19;4929560;28;20019;-61
2022/01/29 00:05:41;;;;;;;3.03;1.42;;;;;;;25.82;27.38;98107.03;4928319;29;20035;-66
2022/01/29 00:08:06;;;;;;;1.73;1.02;;;;;;;25.83;27.32;98108.75;4928610;28;20918;-62
2022/01/29 00:10:32;;;;;;;4.20;1.13;;;;;;;25.83;27.42;98095.59;4940462;28;20039;-62
2022/01/29 00:12:58;;;;;;;1.55;1.17;;;;;;;25.85;27.38;98097.34;4924046;28;20028;-67
2022/01/29 00:15:23;;;;;;;2.92;1.48;;;;;;;25.84;27.50;98085.97;4927656;28;20035;-63
2022/01/29 00:17:49;;;;;;;2.05;1.20;;;;;;;25.84;27.48;98085.97;4928216;29;20131;-63
2022/01/29 00:20:14;;;;;;;2.95;1.17;;;;;;;25.85;27.45;98086.84;4923777;29;20032;-65
2022/01/29 00:22:40;;;;;;;2.63;1.50;;;;;;;25.84;27.52;98078.09;4926769;29;20027;-62
2022/01/29 00:25:07;;;;;;;1.85;1.27;;;;;;;25.83;27.56;98071.97;4925527;28;20125;-66
2022/01/29 00:27:35;;;;;;;1.80;1.27;;;;;;;25.83;27.62;98079.84;4928752;29;20042;-63
2022/01/29 00:30:06;;;;;;;5.57;1.30;;;;;;;25.85;27.38;98084.22;4929166;29;20481;-66
2022/01/29 00:32:31;;;;;;;1.67;1.17;;;;;;;25.85;27.39;98081.59;4941608;28;20031;-62
2022/01/29 00:34:57;;;;;;;1.73;1.30;;;;;;;25.85;27.50;98076.34;4925676;28;20874;-63
2022/01/29 00:37:22;;;;;;;1.88;1.00;;;;;;;25.85;27.41;98071.09;4926611;29;20031;-66
2022/01/29 00:39:47;;;;;;;2.05;1.40;;;;;;;25.85;27.48;98071.94;4924141;28;20036;-64
2022/01/29 00:42:13;;;;;;;3.00;1.17;;;;;;;25.85;27.59;98060.59;4924174;29;20019;-67
2022/01/29 00:44:39;;;;;;;2.00;1.20;;;;;;;25.85;27.44;98063.22;4917582;28;20516;-68
2022/01/29 00:47:04;;;;;;;1.55;1.17;;;;;;;25.84;27.25;98062.34;4922806;29;20031;-61
2022/01/29 00:49:30;;;;;;;8.93;2.30;;;;;;;25.85;27.61;98060.59;4936862;28;20034;-62
2022/01/29 00:51:55;;;;;;;5.00;2.08;;;;;;;25.80;27.44;98048.47;4921512;28;20032;-64
2022/01/29 00:54:20;;;;;;;10.18;1.95;;;;;;;25.78;27.27;98034.50;4922196;29;20451;-64
2022/01/29 00:56:46;;;;;;;4.07;2.00;;;;;;;25.75;27.29;98029.38;4923524;29;20031;-65
2022/01/29 00:59:11;;;;;;;1.52;1.30;;;;;;;25.73;27.56;98035.59;4934689;28;20030;-63
2022/01/29 01:01:37;;;;;;;5.00;1.33;;;;;;;25.70;27.53;98034.78;4936164;28;20039;-66
2022/01/29 01:04:02;;;;;;;3.75;1.77;;;;;;;25.73;27.60;98040.84;4920943;28;20035;-62
2022/01/29 01:06:27;;;;;;;2.63;1.08;;;;;;;25.72;27.60;98034.72;4921999;29;20027;-65
2022/01/29 01:08:53;;;;;;;2.28;1.17;;;;;;;25.72;27.55;98044.38;4921956;29;20035;-65
2022/01/29 01:11:18;;;;;;;1.83;1.17;;;;;;;25.71;27.67;98043.53;4922468;28;20047;-62
2022/01/29 01:13:44;;;;;;;2.58;1.50;;;;;;;25.72;27.76;98050.47;4922499;29;20113;-64
2022/01/29 01:16:09;;;;;;;2.55;1.30;;;;;;;25.73;27.65;98060.06;4924029;29;20390;-66
2022/01/29 01:18:34;;;;;;;7.28;1.20;;;;;;;25.74;27.56;98058.31;4920706;29;20035;-65
2022/01/29 01:21:00;;;;;;;2.60;1.13;;;;;;;25.73;27.59;98052.19;4923623;28;20036;-62
2022/01/29 01:23:25;;;;;;;4.43;1.30;;;;;;;25.73;27.74;98052.19;4924506;29;20031;-65
2022/01/29 01:25:51;;;;;;;2.85;0.98;;;;;;;25.74;27.68;98048.66;4921266;29;20034;-65
2022/01/29 01:28:16;;;;;;;1.63;1.20;;;;;;;25.74;27.69;98043.41;4923996;29;20032;-65
2022/01/29 01:30:42;;;;;;;1.65;1.10;;;;;;;25.75;27.62;98037.25;4933235;28;20035;-66
2022/01/29 01:33:08;;;;;;;2.05;1.08;;;;;;;25.75;27.56;98032.00;4917618;29;20071;-63
2022/01/29 01:35:39;;;;;;;1.10;0.95;;;;;;;25.75;27.65;98029.38;4922057;28;20079;-64
2022/01/29 01:40:41;;;;;;;1.73;0.90;;;;;;;25.75;27.55;98045.13;4922899;28;20050;-65
2022/01/29 01:43:06;;;;;;;2.20;1.05;;;;;;;25.75;27.63;98054.78;4922768;29;21329;-65
2022/01/29 01:45:32;;;;;;;1.88;1.10;;;;;;;25.75;27.91;98060.88;4920502;28;20093;-60
2022/01/29 01:47:57;;;;;;;1.85;0.93;;;;;;;25.75;27.74;98055.66;4923398;28;20050;-64
2022/01/29 01:50:23;;;;;;;1.25;0.95;;;;;;;25.75;27.65;98054.78;4938317;28;20702;-64
2022/01/29 01:52:49;;;;;;;2.53;1.30;;;;;;;25.75;27.61;98053.03;4928581;28;20023;-64
2022/01/29 01:55:15;;;;;;;1.52;1.00;;;;;;;25.74;27.72;98051.28;4920547;29;22912;-65
2022/01/29 01:57:40;;;;;;;2.78;0.85;;;;;;;25.75;27.73;98053.03;4919567;28;20375;-64
2022/01/29 02:00:06;;;;;;;1.02;0.90;;;;;;;25.75;27.66;98042.50;4923061;29;20062;-64
2022/01/29 02:02:32;;;;;;;1.55;1.10;;;;;;;25.75;27.64;98045.13;4922045;28;20045;-63
2022/01/29 02:04:57;;;;;;;1.42;0.90;;;;;;;25.74;27.61;98038.16;4921638;29;20782;-66
2022/01/29 02:07:22;;;;;;;1.42;0.98;;;;;;;25.75;27.75;98034.63;4936477;28;20035;-65
2022/01/29 02:09:48;;;;;;;0.88;0.70;;;;;;;25.75;27.65;98025.88;4921736;29;20035;-66
2022/01/29 02:12:14;;;;;;;1.10;0.93;;;;;;;25.74;27.69;98027.66;4920241;28;20032;-64
2022/01/29 02:14:40;;;;;;;1.52;0.88;;;;;;;25.75;27.77;98020.63;4928877;28;20023;-64
2022/01/29 02:17:09;;;;;;;1.35;1.10;;;;;;;25.75;27.84;98004.88;4925030;29;20027;-65
2022/01/29 02:19:34;;;;;;;2.10;1.10;;;;;;;25.75;27.72;98008.38;4926279;29;20162;-64
2022/01/29 02:22:00;;;;;;;5.32;1.83;;;;;;;25.74;27.80;97998.75;4940179;28;20039;-65
2022/01/29 02:24:25;;;;;;;2.65;1.60;;;;;;;25.72;27.51;97992.72;4934524;28;20036;-65
2022/01/29 02:26:50;;;;;;;1.98;1.17;;;;;;;25.70;27.67;97979.66;4925032;28;20154;-64
2022/01/29 02:29:16;;;;;;;3.15;1.00;;;;;;;25.70;27.63;97976.16;4920424;29;20034;-64
2022/01/29 02:32:00;;;;;;;2.33;1.20;;;;;;;25.70;27.78;97973.53;4918779;28;20031;-64
2022/01/29 02:34:25;;;;;;;2.25;1.00;;;;;;;25.70;27.76;97974.41;4921149;29;20576;-64
2022/01/29 02:36:55;;;;;;;2.15;1.08;;;;;;;25.70;27.70;97973.53;4923892;29;20023;-65
2022/01/29 02:39:21;;;;;;;1.50;1.00;;;;;;;25.69;27.78;97966.56;4922071;29;20035;-66
2022/01/29 02:41:47;;;;;;;1.10;0.98;;;;;;;25.69;27.71;97967.44;4921059;29;20031;-64
2022/01/29 02:44:16;;;;;;;1.60;1.00;;;;;;;25.69;27.82;97977.94;4920535;29;20083;-66
2022/01/29 02:49:13;;;;;;;1.88;0.88;;;;;;;25.69;27.80;97958.69;4923408;29;20126;-65
2022/01/29 02:51:46;;;;;;;1.42;1.05;;;;;;;25.69;27.69;97951.69;4922661;28;20035;-67
2022/01/29 02:54:12;;;;;;;1.73;1.02;;;;;;;25.68;27.76;97949.97;4931625;28;20028;-66
2022/01/29 02:56:37;;;;;;;1.83;0.93;;;;;;;25.69;27.84;97949.06;4924219;29;20071;-63
2022/01/29 02:59:03;;;;;;;0.70;0.60;;;;;;;25.69;27.67;97938.56;4921893;28;20035;-65
2022/01/29 03:01:28;;;;;;;1.85;1.00;;;;;;;25.69;28.11;97937.69;4917703;28;20063;-65
2022/01/29 03:03:53;;;;;;;0.82;0.70;;;;;;;25.70;27.54;97921.00;4922305;28;20027;-65
2022/01/29 03:06:19;;;;;;;1.15;0.77;;;;;;;25.69;27.83;97914.06;4928565;29;20043;-66
2022/01/29 03:08:44;;;;;;;1.20;0.80;;;;;;;25.69;27.73;97909.69;4934941;28;20038;-66
2022/01/29 03:11:11;;;;;;;1.17;1.00;;;;;;;25.68;27.72;97902.72;4920294;28;20873;-64
2022/01/29 03:13:36;;;;;;;1.40;0.90;;;;;;;25.68;27.93;97901.84;4918242;29;20046;-66
2022/01/29 03:16:02;;;;;;;1.00;0.70;;;;;;;25.69;27.87;97903.56;4916806;28;20031;-65
2022/01/29 03:18:27;;;;;;;0.90;0.82;;;;;;;25.69;27.66;97903.56;4922205;29;20386;-67
2022/01/29 03:20:53;;;;;;;2.25;0.70;;;;;;;25.69;27.83;97890.44;4919271;28;20090;-64
2022/01/29 03:23:18;;;;;;;4.18;0.80;;;;;;;25.69;27.77;97893.06;4917316;29;20028;-66
2022/01/29 03:25:43;;;;;;;0.90;0.70;;;;;;;25.69;27.91;97893.06;4919315;29;20027;-66
2022/01/29 03:28:09;;;;;;;2.10;0.80;;;;;;;25.68;27.83;97886.97;4910853;29;20027;-66
2022/01/29 03:30:34;;;;;;;0.65;0.60;;;;;;;25.69;27.73;97882.56;4918443;28;20106;-63
2022/01/29 03:33:00;;;;;;;0.77;0.68;;;;;;;25.68;28.19;97883.47;4916665;29;20774;-64
2022/01/29 03:35:25;;;;;;;1.70;0.93;;;;;;;25.69;27.89;97887.81;4921212;29;20035;-66
2022/01/29 03:37:50;;;;;;;1.00;0.75;;;;;;;25.68;27.90;97878.22;4932924;28;20039;-65
2022/01/29 03:40:16;;;;;;;2.30;1.05;;;;;;;25.67;27.82;97869.47;4919928;28;20028;-65
2022/01/29 03:42:48;;;;;;;1.88;0.75;;;;;;;25.67;27.70;97877.34;4934364;28;20023;-62
2022/01/29 03:45:19;;;;;;;1.02;0.80;;;;;;;25.68;27.73;97880.84;4935606;28;20435;-64
2022/01/29 03:47:44;;;;;;;1.75;0.90;;;;;;;25.67;27.92;97882.59;4919255;28;20244;-63
2022/01/29 03:50:10;;;;;;;0.93;0.80;;;;;;;25.67;27.75;97887.03;4922839;28;20699;-65
2022/01/29 03:52:35;;;;;;;0.75;0.70;;;;;;;25.67;27.83;97887.84;4926017;28;20496;-62
2022/01/29 03:55:00;;;;;;;1.27;0.73;;;;;;;25.67;27.97;97884.41;4918505;29;20024;-64
2022/01/29 03:57:26;;;;;;;1.20;0.90;;;;;;;25.67;28.18;97887.03;4918422;29;20024;-64
2022/01/29 03:59:51;;;;;;;0.65;0.65;;;;;;;25.67;27.82;97884.41;4925023;29;20074;-66
2022/01/29 04:02:17;;;;;;;0.88;0.60;;;;;;;25.67;27.72;97887.03;4928397;28;20039;-64
2022/01/29 04:04:42;;;;;;;1.52;0.85;;;;;;;25.66;27.84;97882.69;4927677;29;20705;-63
2022/01/29 04:07:11;;;;;;;0.85;0.55;;;;;;;25.66;27.59;97877.44;4922922;29;20031;-63
2022/01/29 04:09:37;;;;;;;1.13;0.60;;;;;;;25.66;28.13;97872.19;4922638;28;20043;-64
2022/01/29 04:12:03;;;;;;;0.60;0.60;;;;;;;25.67;27.56;97871.28;4922125;28;20035;-65
2022/01/29 04:14:35;;;;;;;0.63;0.63;;;;;;;25.67;27.80;97873.91;4921760;28;20028;-65
2022/01/29 04:17:00;;;;;;;1.13;0.80;;;;;;;25.67;27.81;97873.91;4923093;28;20082;-66
2022/01/29 04:19:26;;;;;;;1.13;0.90;;;;;;;25.66;27.57;97867.78;4922429;29;20036;-62
2022/01/29 04:21:51;;;;;;;0.85;0.65;;;;;;;25.65;27.76;97859.94;4921919;28;22175;-66
2022/01/29 04:24:16;;;;;;;0.90;0.77;;;;;;;25.65;27.69;97860.81;4922597;28;20892;-65
2022/01/29 04:26:44;;;;;;;0.60;0.47;;;;;;;25.65;27.86;97865.19;4924219;29;20114;-63
2022/01/29 04:29:09;;;;;;;1.33;0.73;;;;;;;25.65;27.90;97865.19;4922274;28;20077;-66
2022/01/29 04:31:44;;;;;;;0.93;0.77;;;;;;;25.65;27.89;97859.94;4922135;28;20036;-63
2022/01/29 04:34:10;;;;;;;1.05;0.75;;;;;;;25.65;27.74;97862.56;4940773;28;20036;-63
2022/01/29 04:36:35;;;;;;;0.60;0.60;;;;;;;25.64;27.81;97868.75;4922424;29;20059;-63
2022/01/29 04:39:01;;;;;;;1.13;0.70;;;;;;;25.64;27.93;97864.38;4922585;28;20028;-63
2022/01/29 04:41:26;;;;;;;1.25;0.60;;;;;;;25.65;27.81;97867.81;4922134;29;20063;-65
2022/01/29 04:43:52;;;;;;;0.57;0.50;;;;;;;25.64;27.85;97859.09;4922631;29;20022;-63
2022/01/29 04:46:17;;;;;;;0.93;0.80;;;;;;;25.64;27.78;97858.25;4922555;29;20031;-65
2022/01/29 04:48:43;;;;;;;0.55;0.50;;;;;;;25.64;27.93;97842.50;4923954;29;20461;-64
2022/01/29 04:51:08;;;;;;;0.98;0.65;;;;;;;25.62;27.88;97829.41;4924152;29;20034;-61
2022/01/29 04:53:33;;;;;;;0.63;0.57;;;;;;;25.63;27.76;97833.75;4923825;29;20027;-63
2022/01/29 04:55:59;;;;;;;0.50;0.50;;;;;;;25.63;27.84;97843.41;4922601;29;20031;-64
2022/01/29 04:58:24;;;;;;;0.52;0.50;;;;;;;25.63;27.81;97830.28;4921111;29;20038;-61
2022/01/29 05:00:50;;;;;;;1.05;0.50;;;;;;;25.63;27.71;97830.28;4917799;28;20027;-64
2022/01/29 05:03:16;;;;;;;0.75;0.40;;;;;;;25.63;27.85;97835.53;4920705;29;20030;-64
2022/01/29 05:05:42;;;;;;;0.93;0.73;;;;;;;25.62;27.91;97842.53;4918597;28;20028;-63
2022/01/29 05:08:08;;;;;;;1.02;0.60;;;;;;;25.63;27.92;97835.53;4920643;29;20502;-65
2022/01/29 05:10:33;;;;;;;0.60;0.60;;;;;;;25.62;27.93;97823.34;4918729;28;20055;-65
2022/01/29 05:13:06;;;;;;;0.73;0.60;;;;;;;25.62;27.99;97826.78;4925964;28;20034;-64
2022/01/29 05:28:53;;;;;;;0.80;0.73;;;;;;;25.54;27.88;97900.53;4921206;29;20042;-64
2022/01/29 05:31:18;;;;;;;0.98;0.52;;;;;;;25.53;27.96;97897.97;4921178;28;20040;-65
2022/01/29 05:33:44;;;;;;;2.35;0.57;;;;;;;25.53;28.05;97898.81;4921658;29;20031;-65
2022/01/29 05:36:09;;;;;;;0.85;0.68;;;;;;;25.52;28.06;97901.50;4922747;29;20038;-65
2022/01/29 05:38:34;;;;;;;7.85;1.00;;;;;;;25.51;28.01;97900.63;4923421;28;20035;-65
2022/01/29 05:41:01;;;;;;;2.55;0.70;;;;;;;25.51;28.06;97892.75;4935557;28;20031;-65
2022/01/29 05:43:27;;;;;;;1.48;0.90;;;;;;;25.51;27.91;97884.03;4923158;29;20031;-64
2022/01/29 05:45:52;;;;;;;1.25;0.60;;;;;;;25.51;28.01;97889.28;4930691;29;20078;-65
2022/01/29 05:48:18;;;;;;;0.75;0.52;;;;;;;25.52;28.02;97875.25;4932054;29;20562;-63
2022/01/29 05:50:43;;;;;;;1.02;0.60;;;;;;;25.51;28.12;97870.91;4934252;29;20031;-64
2022/01/29 05:53:09;;;;;;;1.00;0.52;;;;;;;25.51;28.14;97874.38;4931553;29;20821;-65
2022/01/29 05:55:34;;;;;;;0.90;0.50;;;;;;;25.53;28.13;97876.97;4928117;29;20441;-64
2022/01/29 05:58:02;;;;;;;1.10;0.55;;;;;;;25.52;28.06;97881.34;4920662;29;20035;-62
2022/01/29 06:00:27;;;;;;;0.95;0.60;;;;;;;25.53;28.02;97882.22;4922289;28;20040;-62
2022/01/29 06:03:06;;;;;;;1.00;0.70;;;;;;;25.52;28.06;97870.84;4922505;29;20027;-65
2022/01/29 06:05:32;;;;;;;1.05;0.60;;;;;;;25.52;28.06;97876.09;4918724;29;20118;-64
2022/01/29 06:07:57;;;;;;;0.50;0.50;;;;;;;25.52;28.16;97870.84;4919478;29;20032;-64
2022/01/29 06:10:23;;;;;;;1.00;0.50;;;;;;;25.51;27.95;97863.88;4920851;29;20737;-65
2022/01/29 06:13:09;;;;;;;0.98;0.60;;;;;;;25.52;28.06;97854.25;4919428;28;20035;-65
2022/01/29 06:15:39;;;;;;;1.67;0.80;;;;;;;25.52;28.09;97862.97;4934645;28;20035;-64
2022/01/29 06:18:04;;;;;;;1.10;0.50;;;;;;;25.52;28.16;97862.97;4922042;28;20035;-66
2022/01/29 06:20:32;;;;;;;0.98;0.60;;;;;;;25.52;27.95;97855.09;4921171;29;20172;-63
2022/01/29 06:22:58;;;;;;;0.63;0.60;;;;;;;25.53;27.98;97861.22;4921898;29;20047;-61
2022/01/29 06:25:26;;;;;;;0.52;0.50;;;;;;;25.53;28.09;97861.22;4922085;29;20035;-68
2022/01/29 06:27:51;;;;;;;2.90;0.70;;;;;;;25.54;28.02;97847.16;4922528;29;20031;-65
2022/01/29 06:30:17;;;;;;;1.70;0.77;;;;;;;25.54;28.14;97852.41;4921953;29;20049;-61
2022/01/29 06:32:42;;;;;;;1.10;0.47;;;;;;;25.55;27.92;97860.25;4920786;28;20115;-64
2022/01/29 06:35:08;;;;;;;0.60;0.50;;;;;;;25.53;27.97;97859.47;4918117;29;20150;-63
2022/01/29 06:37:33;;;;;;;1.35;0.40;;;;;;;25.54;28.03;97863.78;4938020;28;20074;-65
2022/01/29 06:39:59;;;;;;;0.80;0.57;;;;;;;25.56;28.15;97867.22;4924708;29;20023;-65
2022/01/29 06:42:24;;;;;;;0.60;0.55;;;;;;;25.57;28.00;97874.22;4922475;29;20035;-64
2022/01/29 06:44:50;;;;;;;0.40;0.40;;;;;;;25.56;28.01;97864.59;4921933;29;20035;-65
2022/01/29 06:47:15;;;;;;;0.60;0.60;;;;;;;25.56;28.07;97867.22;4920974;29;20725;-64
2022/01/29 06:49:41;;;;;;;0.75;0.50;;;;;;;25.57;27.98;97874.22;4922017;29;20089;-65
2022/01/29 06:52:06;;;;;;;0.80;0.50;;;;;;;25.59;27.91;97865.44;4919407;28;20031;-64
2022/01/29 06:54:32;;;;;;;0.60;0.60;;;;;;;25.59;28.11;97876.75;4926249;29;20111;-63
2022/01/29 06:56:57;;;;;;;1.42;0.70;;;;;;;25.60;28.04;97882.88;4920483;28;20039;-63
2022/01/29 06:59:22;;;;;;;1.02;0.40;;;;;;;25.59;27.94;97887.25;4918815;29;20026;-66
2022/01/29 07:01:48;;;;;;;1.48;0.47;;;;;;;25.60;27.95;97885.50;4915294;28;20035;-65
2022/01/29 07:04:13;;;;;;;0.65;0.60;;;;;;;25.62;28.02;97886.31;4919658;29;20046;-64
2022/01/29 07:06:38;;;;;;;1.20;0.50;;;;;;;25.62;27.87;97886.31;4920346;29;20039;-65
2022/01/29 07:09:04;;;;;;;0.57;0.57;;;;;;;25.62;27.94;97884.53;4918639;29;20558;-62
2022/01/29 07:11:30;;;;;;;0.73;0.50;;;;;;;25.63;27.93;97893.28;4915248;28;20035;-64
2022/01/29 07:14:04;;;;;;;1.27;0.50;;;;;;;25.62;28.05;97888.97;4918181;29;20461;-64
2022/01/29 07:16:30;;;;;;;0.77;0.50;;;;;;;25.64;28.02;97895.88;4916256;29;20036;-65
2022/01/29 07:18:56;;;;;;;0.50;0.40;;;;;;;25.64;27.98;97898.50;4918362;29;20031;-66
2022/01/29 07:21:21;;;;;;;0.43;0.43;;;;;;;25.65;27.94;97899.31;4914391;28;20041;-64
2022/01/29 07:23:46;;;;;;;0.93;0.50;;;;;;;25.65;28.18;97886.19;4929882;28;20027;-63
2022/01/29 07:26:12;;;;;;;0.52;0.50;;;;;;;25.64;27.60;97888.00;4917737;28;20483;-63
2022/01/29 07:28:39;;;;;;;0.45;0.40;;;;;;;25.68;28.03;97891.34;4914868;28;20043;-64
2022/01/29 07:31:04;;;;;;;0.88;0.52;;;;;;;25.67;27.91;97894.91;4914683;28;20043;-62
2022/01/29 07:33:30;;;;;;;0.55;0.47;;;;;;;25.67;28.10;97900.16;4919373;28;20110;-66
2022/01/29 07:35:55;;;;;;;1.58;0.60;;;;;;;25.69;27.88;97895.69;4939500;28;20844;-61
2022/01/29 07:38:21;;;;;;;0.90;0.50;;;;;;;25.68;27.94;97896.59;4926308;29;20114;-65
2022/01/29 07:40:46;;;;;;;1.52;0.40;;;;;;;25.69;27.93;97882.56;4924840;29;21041;-65
2022/01/29 07:43:12;;;;;;;0.88;0.47;;;;;;;25.69;27.89;97879.94;4921157;28;20031;-66
2022/01/29 07:45:37;;;;;;;2.15;0.50;;;;;;;25.70;27.96;97879.00;4920778;29;20087;-66
2022/01/29 07:48:03;;;;;;;1.65;0.43;;;;;;;25.70;27.71;97864.13;4922825;28;20027;-63
2022/01/29 07:50:28;;;;;;;0.93;0.40;;;;;;;25.71;28.23;97859.75;4921434;29;20146;-65
2022/01/29 07:52:54;;;;;;;11.13;1.35;;;;;;;25.70;27.79;97858.88;4919360;28;20108;-64
2022/01/29 07:55:20;;;;;;;3.92;0.80;;;;;;;25.68;28.06;97851.97;4921727;29;20040;-65
2022/01/29 07:57:45;;;;;;;3.92;1.02;;;;;;;25.69;27.91;97856.31;4918536;28;20721;-67
2022/01/29 08:00:11;;;;;;;7.72;1.88;;;;;;;25.70;28.05;97863.25;4936889;28;20093;-65
2022/01/29 08:02:37;;;;;;;14.48;2.42;;;;;;;25.69;28.01;97862.41;4919307;28;20032;-62
2022/01/29 08:05:02;;;;;;;15.07;3.33;;;;;;;25.69;28.37;97872.06;4920015;28;22076;-65
2022/01/29 08:07:28;;;;;;;11.07;2.80;;;;;;;25.68;27.85;97870.34;4916449;28;20047;-63
2022/01/29 08:09:53;;;;;;;8.80;3.10;;;;;;;25.69;28.07;97872.06;4917839;28;20082;-66
2022/01/29 08:12:19;;;;;;;8.65;2.97;;;;;;;25.68;28.03;97867.72;4922182;29;20502;-67
2022/01/29 08:14:44;;;;;;;7.82;2.60;;;;;;;25.70;28.29;97863.25;4923040;28;20035;-69
2022/01/29 08:17:09;;;;;;;8.77;2.45;;;;;;;25.71;28.36;97854.50;4923391;28;20086;-62
2022/01/29 08:19:35;;;;;;;11.68;2.95;;;;;;;25.71;28.51;97846.63;4912565;28;20051;-68
2022/01/29 08:22:00;;;;;;;6.40;2.35;;;;;;;25.72;28.45;97842.22;4918475;29;20031;-66
2022/01/29 08:24:26;;;;;;;8.80;2.42;;;;;;;25.73;28.26;97841.31;4920845;29;20114;-68
2022/01/29 08:26:51;;;;;;;7.20;2.15;;;;;;;25.75;28.67;97842.09;4920319;28;20090;-66
2022/01/29 08:29:16;;;;;;;5.70;2.20;;;;;;;25.74;28.40;97841.25;4920451;29;20049;-66
2022/01/29 08:31:42;;;;;;;6.88;2.20;;;;;;;25.76;28.31;97843.81;4922528;28;20046;-68
2022/01/29 08:34:07;;;;;;;4.47;2.15;;;;;;;25.76;28.31;97844.69;4922414;29;20718;-67
2022/01/29 08:36:33;;;;;;;5.75;2.00;;;;;;;25.76;28.24;97839.44;4918864;29;20032;-67
2022/01/29 08:38:58;;;;;;;5.60;2.75;;;;;;;25.76;28.39;97836.81;4919009;29;20902;-69
2022/01/29 08:41:24;;;;;;;5.40;2.20;;;;;;;25.78;28.52;97839.38;4918464;29;20055;-68
2022/01/29 08:43:49;;;;;;;7.13;2.58;;;;;;;25.79;28.44;97846.34;4913746;29;20028;-68
2022/01/29 08:46:15;;;;;;;5.47;2.67;;;;;;;25.78;27.71;97844.63;4920044;28;20050;-69
2022/01/29 08:48:41;;;;;;;9.35;2.45;;;;;;;25.77;27.87;97838.50;4920907;29;20039;-62
2022/01/29 08:51:06;;;;;;;4.57;2.08;;;;;;;25.77;27.98;97838.50;4936166;28;24321;-67
2022/01/29 08:53:32;;;;;;;6.10;2.30;;;;;;;25.79;28.18;97841.09;4920986;28;20039;-68
2022/01/29 08:55:58;;;;;;;8.23;2.10;;;;;;;25.79;28.06;97844.56;4920461;29;20031;-71
2022/01/29 08:58:23;;;;;;;4.10;1.83;;;;;;;25.80;28.26;97842.78;4916358;28;21032;-67
2022/01/29 09:00:49;;;;;;;6.95;1.95;;;;;;;25.81;28.36;97845.38;4921330;28;20866;-64
2022/01/29 09:03:15;;;;;;;4.40;1.85;;;;;;;25.82;28.32;97833.94;4922638;29;20078;-66
2022/01/29 09:05:42;;;;;;;4.50;2.00;;;;;;;25.82;28.40;97841.81;4922274;28;20047;-67
2022/01/29 09:08:08;;;;;;;4.13;1.70;;;;;;;25.83;28.42;97832.19;4921470;29;20034;-66
2022/01/29 09:10:33;;;;;;;6.78;2.10;;;;;;;25.82;28.35;97831.31;4920594;28;20032;-70
2022/01/29 09:12:59;;;;;;;5.65;2.20;;;;;;;25.86;28.52;97833.84;4922529;28;20123;-66
2022/01/29 09:15:24;;;;;;;9.25;2.42;;;;;;;25.85;28.48;97829.50;4923670;29;20091;-70
2022/01/29 09:17:49;;;;;;;5.25;1.80;;;;;;;25.87;28.43;97822.41;4922948;29;20191;-67
2022/01/29 09:20:15;;;;;;;5.45;2.00;;;;;;;25.87;28.36;97825.03;4938438;28;20390;-67
2022/01/29 09:22:40;;;;;;;8.23;1.88;;;;;;;25.88;28.41;97826.75;4929329;29;20482;-71
2022/01/29 09:25:06;;;;;;;6.53;1.75;;;;;;;25.90;28.45;97827.56;4926163;28;20030;-66
2022/01/29 09:27:31;;;;;;;12.68;2.17;;;;;;;25.88;28.57;97818.88;4927933;28;20032;-65
2022/01/29 09:29:57;;;;;;;11.18;3.35;;;;;;;25.82;25.48;97812.94;4923495;29;20067;-65
2022/01/29 09:32:22;;;;;;;5.15;3.60;;;;;;;25.67;22.69;97814.34;4927099;29;20043;-64
2022/01/29 09:34:48;;;;;;;9.77;3.90;;;;;;;25.48;22.17;97806.28;4924944;29;20079;-68
2022/01/29 09:37:13;;;;;;;11.55;3.70;;;;;;;25.26;21.76;97812.28;4925984;29;20050;-68
2022/01/29 09:39:39;;;;;;;4.25;3.50;;;;;;;25.10;22.45;97808.47;4921722;28;20776;-67
2022/01/29 09:42:05;;;;;;;6.88;2.90;;;;;;;24.97;22.98;97803.63;4922156;29;20126;-69
2022/01/29 09:44:31;;;;;;;3.30;2.40;;;;;;;24.92;23.22;97808.19;4923063;29;20146;-65
2022/01/29 09:46:56;;;;;;;5.22;2.70;;;;;;;24.90;23.51;97810.84;4907692;29;20049;-67
2022/01/29 09:49:22;;;;;;;2.95;2.17;;;;;;;24.92;23.65;97808.19;4935554;28;20507;-68
2022/01/29 09:51:47;;;;;;;4.35;2.30;;;;;;;24.93;24.12;97804.63;4918481;29;20031;-69
2022/01/29 09:54:12;;;;;;;4.05;2.17;;;;;;;24.97;24.32;97806.25;4918575;29;20069;-66
2022/01/29 09:56:38;;;;;;;4.07;2.00;;;;;;;25.01;24.37;97807.00;4918982;28;20035;-67
2022/01/29 09:59:03;;;;;;;5.60;2.10;;;;;;;25.04;24.61;97805.16;4919072;28;20102;-66
2022/01/29 10:01:29;;;;;;;4.38;2.10;;;;;;;25.12;24.91;97806.63;4927335;28;20162;-65
2022/01/29 10:04:04;;;;;;;9.35;2.22;;;;;;;25.16;24.85;97806.50;4914552;28;20194;-66
2022/01/29 10:06:29;;;;;;;6.03;2.00;;;;;;;25.20;25.04;97815.09;4918656;28;20031;-65
2022/01/29 10:08:55;;;;;;;5.50;1.80;;;;;;;25.25;25.18;97805.28;4920737;28;20027;-65
2022/01/29 10:11:24;;;;;;;11.32;1.83;;;;;;;25.28;25.28;97810.44;4919498;29;20694;-61
2022/01/29 10:13:50;;;;;;;8.32;2.25;;;;;;;25.31;25.38;97794.59;4917165;28;20027;-61
2022/01/29 10:16:19;;;;;;;4.30;1.90;;;;;;;25.35;25.23;97800.59;4931794;28;20058;-63
2022/01/29 10:19:09;;;;;;;3.85;1.80;;;;;;;25.39;25.36;97789.09;4920180;28;20035;-64
2022/01/29 10:21:41;;;;;;;5.53;1.85;;;;;;;25.44;25.62;97786.31;4917792;28;20093;-64
2022/01/29 10:24:17;;;;;;;10.05;2.15;;;;;;;25.45;25.72;97780.97;4914809;28;20549;-65
2022/01/29 10:26:44;;;;;;;8.88;2.65;;;;;;;25.49;25.74;97792.25;4917703;28;20039;-64
2022/01/29 10:29:16;;;;;;;12.15;2.88;;;;;;;25.52;25.76;97780.78;4917888;29;20037;-63
2022/01/29 10:31:42;;;;;;;;;;;;;;;25.54;26.04;97778.94;4920562;28;20143;-64
2022/01/29 10:34:18;;;;;;;10.65;2.70;;;;;;;25.57;25.88;97778.88;4907359;29;19976;-65
2022/01/29 10:36:44;;;;;;;13.27;3.25;;;;;;;25.59;25.81;97781.44;4919029;29;20032;-63
2022/01/29 10:39:09;;;;;;;8.73;2.80;;;;;;;25.62;25.94;97781.34;4920541;29;20097;-64
2022/01/29 10:41:35;;;;;;;9.38;2.92;;;;;;;25.63;26.18;97772.53;4928390;28;20605;-62
2022/01/29 10:44:14;;;;;;;9.23;2.85;;;;;;;25.65;26.23;97775.94;4921783;29;20035;-63
2022/01/29 10:46:45;;;;;;;12.00;2.97;;;;;;;25.68;26.24;97775.84;4917408;29;20038;-62
2022/01/29 10:49:31;;;;;;;11.23;2.65;;;;;;;25.69;26.44;97764.41;4920819;29;20032;-62
2022/01/29 10:52:04;;;;;;;10.23;2.70;;;;;;;25.72;26.32;97764.31;4914917;28;20027;-63
2022/01/29 10:54:30;;;;;;;12.68;3.25;;;;;;;25.74;26.35;97769.50;4927893;29;20191;-65
2022/01/29 10:56:57;;;;;;;9.75;2.75;;;;;;;25.74;26.39;97765.09;4920542;29;20091;-62
2022/01/29 10:59:23;;;;;;;11.63;3.17;;;;;;;25.77;26.50;97759.75;4935818;28;20079;-62
2022/01/29 11:01:50;;;;;;;13.23;3.25;;;;;;;25.78;26.54;97756.19;4935287;28;20028;-62
2022/01/29 11:04:15;;;;;;;10.63;3.08;;;;;;;25.80;26.53;97762.25;4917133;28;20110;-65
2022/01/29 11:06:44;;;;;;;9.40;2.95;;;;;;;25.82;26.26;97763.03;4932444;28;20327;-65
2022/01/29 11:09:10;;;;;;;7.70;3.08;;;;;;;25.85;26.61;97759.44;4917804;29;20027;-65
2022/01/29 11:11:35;;;;;;;8.02;2.55;;;;;;;25.86;26.54;97762.94;4918504;28;20027;-64
2022/01/29 11:14:00;;;;;;;7.05;2.83;;;;;;;25.88;26.67;97761.09;4927314;29;20739;-65
2022/01/29 11:16:26;;;;;;;14.25;2.88;;;;;;;25.88;26.66;97750.59;4919843;29;20498;-65
2022/01/29 11:18:51;;;;;;;9.20;2.85;;;;;;;25.87;26.39;97749.75;4929842;29;20020;-63
2022/01/29 11:21:18;;;;;;;6.35;2.63;;;;;;;25.91;26.95;97747.84;4924371;28;20557;-65
2022/01/29 11:23:43;;;;;;;11.07;2.88;;;;;;;25.91;26.71;97753.97;4922109;29;20030;-62
2022/01/29 11:26:09;;;;;;;6.85;2.30;;;;;;;25.93;26.79;97753.94;4919622;29;20031;-64
2022/01/29 11:28:35;;;;;;;6.82;2.35;;;;;;;25.94;26.72;97753.00;4933188;28;20050;-65
2022/01/29 11:31:16;;;;;;;7.72;2.63;;;;;;;25.95;26.72;97754.72;4933947;28;20114;-64
2022/01/29 11:34:02;;;;;;;8.73;2.72;;;;;;;25.97;26.84;97752.88;4911607;28;20140;-62
2022/01/29 11:36:46;;;;;;;5.93;2.10;;;;;;;25.97;26.53;97742.34;4907994;29;20047;-64
2022/01/29 11:39:21;;;;;;;10.82;2.75;;;;;;;25.97;26.74;97744.97;4919124;29;20093;-63
2022/01/29 11:42:06;;;;;;;8.10;2.42;;;;;;;25.97;26.63;97737.09;4917724;29;20035;-64
2022/01/29 11:44:32;;;;;;;7.80;2.10;;;;;;;25.97;26.65;97734.47;4919319;28;20954;-64
2022/01/29 11:47:19;;;;;;;8.85;1.90;;;;;;;25.98;26.75;97740.59;4916971;29;20034;-63
2022/01/29 11:49:44;;;;;;;10.02;1.83;;;;;;;25.98;26.77;97735.34;4932461;28;20040;-61